Atlanta, Georgia
Traffic Map
Current Weather Conditions
Atlanta, Georgia
Few Clouds
Few Clouds
56°
Feels Like: 56°
Wind Chill: 56° Ceiling: Unl
Heat Index: 56° Visibility: 10mi
Dew Point: 50° Wind: 0mph
Humidity: 80% Direction: ° ()
Pressure: 30.11in Gusts: 0mph
Raw Report DataKATL 201252Z 00000KT 10SM FEW250 13/10 A3011 RMK AO2 SLP195 T01330100
Traffic Incident Summary
Active as of:
Severity:
Category:
InformationThere was an issue retrieving the traffic information for this location. Please try a different location or try again shortly.
Advertisements
Track Severe Weather on mobile